Time;durP1;ratioP1;P1;durP2;ratioP2;P2;SDS_P1;SDS_P2;PMS_P1;PMS_P2;Temp;Humidity;BMP_temperature;BMP_pressure;BME280_temperature;BME280_humidity;BME280_pressure;Samples;Min_cycle;Max_cycle;Signal;HPM_P1;HPM_P2
2023/11/11 00:01:43;;;;;;;14.00;11.10;;;;;;;6.97;100.00;100530.13;5013142;28;20038;-72
2023/11/11 00:04:08;;;;;;;13.93;11.00;;;;;;;6.97;100.00;100524.00;5012793;28;20041;-70
2023/11/11 00:06:34;;;;;;;12.93;10.73;;;;;;;7.00;100.00;100529.00;5011460;28;20061;-71
2023/11/11 00:08:59;;;;;;;15.63;11.53;;;;;;;6.92;100.00;100513.00;5012463;28;20044;-72
2023/11/11 00:11:25;;;;;;;14.10;11.30;;;;;;;6.99;100.00;100514.94;5012903;28;20426;-69
2023/11/11 00:13:51;;;;;;;12.67;10.40;;;;;;;7.03;100.00;100524.25;5013025;28;20497;-70
2023/11/11 00:16:18;;;;;;;13.30;10.70;;;;;;;7.06;100.00;100513.38;5012280;28;20045;-71
2023/11/11 00:18:45;;;;;;;12.97;10.97;;;;;;;7.08;100.00;100513.22;5012038;28;20040;-70
2023/11/11 00:21:11;;;;;;;18.67;11.57;;;;;;;7.00;100.00;100492.78;5011897;28;20060;-71
2023/11/11 00:23:37;;;;;;;13.33;11.27;;;;;;;7.04;100.00;100503.91;5012010;28;20103;-70
2023/11/11 00:26:04;;;;;;;12.03;9.80;;;;;;;6.93;100.00;100490.84;5012104;28;20132;-70
2023/11/11 00:28:30;;;;;;;15.43;10.87;;;;;;;7.08;100.00;100523.81;5011808;28;20044;-69
2023/11/11 00:30:55;;;;;;;15.27;11.43;;;;;;;7.08;100.00;100524.66;5011827;28;20042;-70
2023/11/11 00:33:22;;;;;;;13.63;10.83;;;;;;;7.05;100.00;100505.56;5011537;28;20108;-71
2023/11/11 00:35:48;;;;;;;14.73;11.77;;;;;;;6.94;100.00;100488.06;5011864;28;20045;-70
2023/11/11 00:38:14;;;;;;;13.77;10.13;;;;;;;6.97;100.00;100492.25;5011487;28;20041;-69
2023/11/11 00:40:40;;;;;;;16.00;12.37;;;;;;;6.87;100.00;100489.59;5011703;28;20049;-70
2023/11/11 00:43:07;;;;;;;16.73;12.20;;;;;;;6.84;100.00;100498.69;5014088;28;20037;-70
2023/11/11 00:45:34;;;;;;;16.17;11.77;;;;;;;6.96;100.00;100512.59;5015668;28;20042;-70
2023/11/11 00:48:00;;;;;;;15.07;11.70;;;;;;;6.97;100.00;100508.97;5015557;28;20062;-70
2023/11/11 00:50:26;;;;;;;13.27;10.60;;;;;;;6.99;100.00;100512.28;5015124;28;20030;-70
2023/11/11 00:52:52;;;;;;;15.93;11.43;;;;;;;6.97;100.00;100508.13;5016004;28;20529;-72
2023/11/11 00:55:18;;;;;;;16.57;12.33;;;;;;;7.01;100.00;100520.09;5017772;28;20120;-70
2023/11/11 00:57:46;;;;;;;14.73;10.50;;;;;;;7.03;100.00;100524.25;5020751;28;20038;-69
2023/11/11 01:00:12;;;;;;;17.47;12.20;;;;;;;7.05;100.00;100526.75;5001424;28;20631;-70
2023/11/11 01:02:38;;;;;;;15.73;10.10;;;;;;;6.90;100.00;100502.56;5016142;28;20082;-72
2023/11/11 01:05:04;;;;;;;16.40;10.63;;;;;;;7.00;100.00;100521.91;5017245;28;20126;-69
2023/11/11 01:07:30;;;;;;;14.57;10.63;;;;;;;6.91;100.00;100509.50;5013923;28;20098;-70
2023/11/11 01:09:57;;;;;;;17.50;11.10;;;;;;;7.03;100.00;100526.06;5015705;28;20085;-70
2023/11/11 01:12:23;;;;;;;15.70;12.13;;;;;;;6.98;100.00;100521.22;5014353;28;20072;-70
2023/11/11 01:14:49;;;;;;;19.77;12.03;;;;;;;7.01;100.00;100526.22;5015802;28;20068;-70
2023/11/11 01:17:16;;;;;;;17.83;12.07;;;;;;;6.90;100.00;100515.78;5015639;28;20042;-72
2023/11/11 01:19:42;;;;;;;17.10;11.67;;;;;;;6.80;100.00;100501.75;4999867;28;20037;-70
2023/11/11 01:22:09;;;;;;;18.97;11.93;;;;;;;6.85;100.00;100507.44;5032940;28;20041;-68
2023/11/11 01:24:40;;;;;;;20.63;12.33;;;;;;;6.87;100.00;100512.59;5034544;28;20116;-68
2023/11/11 01:27:10;;;;;;;19.30;12.43;;;;;;;6.70;100.00;100490.38;5035264;28;20052;-72
2023/11/11 01:29:37;;;;;;;19.63;12.10;;;;;;;6.82;100.00;100505.09;5034309;28;20132;-70
2023/11/11 01:32:04;;;;;;;15.83;10.97;;;;;;;6.91;100.00;100521.91;5033305;28;20045;-67
2023/11/11 01:34:29;;;;;;;16.93;12.27;;;;;;;6.95;100.00;100524.16;5033992;28;20426;-67
2023/11/11 01:36:56;;;;;;;17.83;12.30;;;;;;;6.86;100.00;100503.81;5033270;28;20033;-68
2023/11/11 01:39:22;;;;;;;17.97;12.40;;;;;;;6.95;100.00;100515.38;5034280;28;20521;-66
2023/11/11 01:41:47;;;;;;;19.87;11.27;;;;;;;6.98;100.00;100523.88;5033989;28;20043;-66
2023/11/11 01:44:13;;;;;;;17.63;10.87;;;;;;;6.92;100.00;100513.81;5034394;28;20047;-68
2023/11/11 01:46:40;;;;;;;18.00;11.93;;;;;;;6.94;100.00;100525.13;5032796;28;20438;-66
2023/11/11 01:49:06;;;;;;;19.13;12.97;;;;;;;6.99;100.00;100530.81;5033884;28;20065;-67
2023/11/11 01:51:33;;;;;;;16.77;12.17;;;;;;;7.00;100.00;100524.56;5034108;28;20060;-67
2023/11/11 01:54:00;;;;;;;24.70;12.53;;;;;;;6.96;100.00;100519.69;5033338;28;20044;-66
2023/11/11 01:56:25;;;;;;;19.33;13.53;;;;;;;7.02;100.00;100527.88;5032576;28;20037;-67
2023/11/11 01:58:52;;;;;;;21.00;12.07;;;;;;;6.97;100.00;100518.72;5032842;28;20456;-69
2023/11/11 02:01:18;;;;;;;20.30;13.37;;;;;;;7.12;100.00;100522.53;5033686;28;20053;-65
2023/11/11 02:03:44;;;;;;;19.23;12.30;;;;;;;7.09;100.00;100534.25;5032467;28;20511;-66
2023/11/11 02:06:11;;;;;;;17.77;12.00;;;;;;;6.98;100.00;100515.91;5033886;28;20029;-68
2023/11/11 02:08:37;;;;;;;22.00;12.93;;;;;;;7.05;100.00;100538.19;5033864;28;20086;-67
2023/11/11 02:11:05;;;;;;;21.23;13.53;;;;;;;7.03;100.00;100532.19;5032686;28;20068;-68
2023/11/11 02:13:37;;;;;;;20.88;12.07;;;;;;;6.98;100.00;100523.03;5033861;28;20091;-69
2023/11/11 02:16:06;;;;;;;18.67;11.50;;;;;;;6.86;100.00;100511.78;5033764;28;20091;-71
2023/11/11 02:18:33;;;;;;;21.90;11.60;;;;;;;6.98;100.00;100536.25;5033346;28;20033;-68
2023/11/11 02:21:18;;;;;;;22.37;12.03;;;;;;;6.99;100.00;100536.13;5032751;28;20040;-67
2023/11/11 02:23:50;;;;;;;16.23;12.27;;;;;;;6.97;100.00;100538.09;5033354;28;20405;-68
2023/11/11 02:26:17;;;;;;;18.37;13.13;;;;;;;6.97;100.00;100540.72;5033637;28;20144;-67
2023/11/11 02:28:42;;;;;;;23.03;13.37;;;;;;;6.77;100.00;100516.13;5033080;28;20520;-67
2023/11/11 02:31:08;;;;;;;19.23;11.67;;;;;;;6.91;100.00;100536.00;5033386;28;20120;-71
2023/11/11 02:33:35;;;;;;;21.17;13.33;;;;;;;6.95;100.00;100537.41;5033160;28;20052;-66
2023/11/11 02:36:01;;;;;;;17.87;12.20;;;;;;;6.98;100.00;100537.09;5033321;28;20128;-65
2023/11/11 02:38:27;;;;;;;18.10;14.00;;;;;;;6.97;100.00;100540.72;5032207;28;20846;-70
2023/11/11 02:40:53;;;;;;;17.40;12.13;;;;;;;6.88;100.00;100523.03;5032925;28;20029;-66
2023/11/11 02:43:18;;;;;;;20.27;13.80;;;;;;;6.95;100.00;100536.56;5032859;28;20501;-66
2023/11/11 02:45:44;;;;;;;18.80;11.30;;;;;;;6.94;100.00;100546.31;5031910;28;20037;-68
2023/11/11 02:48:10;;;;;;;16.17;11.33;;;;;;;6.83;100.00;100528.78;5032778;28;20408;-66
2023/11/11 02:50:35;;;;;;;20.13;11.60;;;;;;;6.99;100.00;100544.06;5031416;28;20041;-67
2023/11/11 02:53:01;;;;;;;18.47;12.13;;;;;;;6.89;100.00;100532.66;5032608;28;20045;-68
2023/11/11 02:55:27;;;;;;;17.00;11.67;;;;;;;6.89;100.00;100537.94;5032867;28;20412;-66
2023/11/11 02:57:52;;;;;;;16.07;11.63;;;;;;;6.78;100.00;100519.59;5032350;28;20072;-66
2023/11/11 03:00:18;;;;;;;20.53;11.50;;;;;;;6.83;100.00;100527.94;5032532;28;20037;-67
2023/11/11 03:02:44;;;;;;;18.53;11.97;;;;;;;6.84;100.00;100519.03;5032461;28;20045;-67
2023/11/11 03:05:09;;;;;;;16.40;11.53;;;;;;;6.95;100.00;100540.03;5031535;28;20041;-66
2023/11/11 03:07:35;;;;;;;18.23;13.00;;;;;;;6.93;100.00;100549.91;5032445;28;20048;-68
2023/11/11 03:10:04;;;;;;;20.67;12.23;;;;;;;6.89;100.00;100556.47;5032260;28;20099;-65
2023/11/11 03:12:31;;;;;;;22.67;13.73;;;;;;;6.73;100.00;100537.72;5032034;28;20048;-67
2023/11/11 03:14:56;;;;;;;18.73;11.70;;;;;;;6.80;100.00;100554.69;5032327;28;20846;-66
2023/11/11 03:17:23;;;;;;;23.50;12.83;;;;;;;6.81;100.00;100551.91;5030883;28;20128;-66
2023/11/11 03:19:49;;;;;;;21.80;12.13;;;;;;;6.73;100.00;100548.31;5032159;28;20041;-67
2023/11/11 03:22:15;;;;;;;19.87;12.87;;;;;;;6.63;100.00;100531.59;5015081;28;20088;-67
2023/11/11 03:24:44;;;;;;;22.07;11.93;;;;;;;6.78;100.00;100546.06;5032151;28;20080;-66
2023/11/11 03:27:11;;;;;;;20.73;12.33;;;;;;;6.82;100.00;100539.50;5032444;28;20378;-67
2023/11/11 03:29:36;;;;;;;19.33;12.13;;;;;;;6.91;100.00;100551.88;5031991;28;20041;-66
2023/11/11 03:32:02;;;;;;;19.80;13.93;;;;;;;6.84;100.00;100538.38;5031698;28;20041;-67
2023/11/11 03:34:28;;;;;;;18.77;12.17;;;;;;;6.89;100.00;100548.53;5031993;28;20040;-67
2023/11/11 03:36:53;;;;;;;16.43;11.93;;;;;;;6.85;100.00;100541.88;5031974;28;20045;-67
2023/11/11 03:39:19;;;;;;;18.20;12.17;;;;;;;6.78;100.00;100551.38;5032174;28;20124;-66
2023/11/11 03:41:45;;;;;;;17.57;10.83;;;;;;;6.53;100.00;100502.53;5031755;28;20033;-66
2023/11/11 03:44:11;;;;;;;19.63;12.53;;;;;;;6.86;100.00;100559.41;5030931;28;20090;-66
2023/11/11 03:46:36;;;;;;;22.23;12.70;;;;;;;6.81;100.00;100564.31;5031647;28;20431;-67
2023/11/11 03:49:02;;;;;;;22.27;12.20;;;;;;;6.84;100.00;100561.38;5031760;28;20045;-66
2023/11/11 03:51:28;;;;;;;19.77;12.77;;;;;;;6.66;100.00;100536.63;5030386;28;20026;-66
2023/11/11 03:53:53;;;;;;;17.97;12.70;;;;;;;6.77;100.00;100549.69;5031377;28;20037;-67
2023/11/11 03:56:20;;;;;;;20.77;13.30;;;;;;;6.84;100.00;100566.66;5031589;28;20049;-67
2023/11/11 03:58:46;;;;;;;22.90;14.13;;;;;;;6.74;100.00;100550.00;5032039;28;20052;-66
2023/11/11 04:01:12;;;;;;;19.97;11.03;;;;;;;6.84;100.00;100569.31;5030168;28;20037;-66
2023/11/11 04:03:39;;;;;;;23.63;13.70;;;;;;;6.67;100.00;100546.25;5031290;28;20052;-67
2023/11/11 04:06:09;;;;;;;18.93;11.83;;;;;;;6.52;100.00;100519.38;5031444;28;20037;-67
2023/11/11 04:08:35;;;;;;;22.50;13.23;;;;;;;6.63;100.00;100543.03;5031492;28;20041;-66
2023/11/11 04:11:06;;;;;;;20.47;12.37;;;;;;;6.76;100.00;100567.38;5030247;28;20033;-67
2023/11/11 04:13:37;;;;;;;18.77;10.67;;;;;;;6.67;100.00;100548.91;5031501;28;20052;-66
2023/11/11 04:16:03;;;;;;;19.50;13.03;;;;;;;6.80;100.00;100565.28;5032580;28;20041;-66
2023/11/11 04:18:32;;;;;;;22.67;13.67;;;;;;;6.72;100.00;100552.78;5020039;28;20041;-67
2023/11/11 04:20:59;;;;;;;23.13;12.97;;;;;;;6.77;100.00;100560.28;5019801;28;20043;-66
2023/11/11 04:23:26;;;;;;;19.63;12.03;;;;;;;6.65;100.00;100561.41;5037674;28;20048;-66
2023/11/11 04:25:53;;;;;;;18.43;12.17;;;;;;;6.70;100.00;100569.78;5036565;28;20056;-67
2023/11/11 04:28:20;;;;;;;22.13;12.52;;;;;;;6.77;100.00;100562.94;5038047;28;20424;-67
2023/11/11 04:30:45;;;;;;;22.97;13.57;;;;;;;6.88;100.00;100572.50;5038061;28;20038;-68
2023/11/11 04:33:11;;;;;;;24.37;13.23;;;;;;;6.84;100.00;100566.66;5038948;28;20514;-66
2023/11/11 04:35:37;;;;;;;20.47;12.17;;;;;;;6.91;100.00;100565.09;5038197;28;20111;-66
2023/11/11 04:38:07;;;;;;;17.67;11.90;;;;;;;7.02;100.00;100580.84;5038234;28;20136;-69
2023/11/11 04:40:36;;;;;;;25.20;13.63;;;;;;;7.06;100.00;100589.31;5037957;28;20477;-67
2023/11/11 04:43:03;;;;;;;20.77;11.87;;;;;;;6.77;100.00;100539.09;5020863;28;20033;-69
2023/11/11 04:45:30;;;;;;;20.83;12.73;;;;;;;7.02;100.00;100585.31;5038565;28;20111;-67
2023/11/11 04:47:56;;;;;;;20.07;12.10;;;;;;;6.95;100.00;100574.47;5037644;28;20382;-68
2023/11/11 04:50:24;;;;;;;19.15;12.55;;;;;;;7.03;100.00;100590.44;5036626;28;20033;-67
2023/11/11 04:52:51;;;;;;;21.80;11.97;;;;;;;6.99;100.00;100585.59;5037543;28;20500;-67
2023/11/11 04:55:21;;;;;;;19.53;12.83;;;;;;;7.01;100.00;100594.22;5037776;28;20053;-67
2023/11/11 04:57:50;;;;;;;23.93;13.13;;;;;;;7.00;100.00;100588.09;5037476;28;20485;-68
2023/11/11 05:00:17;;;;;;;24.33;13.17;;;;;;;6.83;100.00;100565.84;5037469;28;20400;-67
2023/11/11 05:02:45;;;;;;;19.47;12.60;;;;;;;6.98;100.00;100584.75;5036283;28;20500;-69
2023/11/11 05:05:10;;;;;;;23.52;12.48;;;;;;;7.09;100.00;100603.09;5038032;28;20042;-67
2023/11/11 05:07:40;;;;;;;23.20;13.33;;;;;;;7.02;100.00;100586.13;5036305;28;20037;-66
2023/11/11 05:10:09;;;;;;;23.53;13.37;;;;;;;7.10;100.00;100599.47;5036722;28;20056;-67
2023/11/11 05:12:37;;;;;;;22.83;12.60;;;;;;;6.83;100.00;100559.72;5036246;28;20041;-68
2023/11/11 05:15:13;;;;;;;21.77;13.00;;;;;;;7.06;100.00;100592.81;5037580;28;20029;-67
2023/11/11 05:17:43;;;;;;;19.80;14.47;;;;;;;6.81;100.00;100548.44;5037707;28;20037;-67
2023/11/11 05:20:10;;;;;;;23.13;15.20;;;;;;;7.15;100.00;100601.69;5036624;28;20041;-67
2023/11/11 05:22:37;;;;;;;18.07;12.87;;;;;;;7.05;100.00;100599.09;5037730;28;20037;-67
2023/11/11 05:25:05;;;;;;;24.80;12.97;;;;;;;6.77;100.00;100557.63;5036208;28;20104;-66
2023/11/11 05:27:31;;;;;;;22.00;14.18;;;;;;;7.04;100.00;100605.34;5036866;28;20041;-67
2023/11/11 05:29:57;;;;;;;17.90;13.03;;;;;;;6.37;100.00;100495.19;5034155;28;20041;-66
2023/11/11 05:32:23;;;;;;;19.10;12.40;;;;;;;6.79;100.00;100568.91;5035078;28;20041;-69
2023/11/11 05:34:49;;;;;;;22.57;13.30;;;;;;;6.99;100.00;100602.31;5036673;28;20033;-67
2023/11/11 05:37:15;;;;;;;23.53;12.40;;;;;;;7.00;100.00;100608.44;5035070;28;20493;-71
2023/11/11 05:39:44;;;;;;;22.00;14.03;;;;;;;7.03;100.00;100619.56;5034844;28;20116;-69
2023/11/11 05:42:11;;;;;;;16.73;12.27;;;;;;;7.09;100.00;100637.53;5035779;28;20083;-69
2023/11/11 05:44:40;;;;;;;21.07;11.63;;;;;;;7.06;100.00;100635.19;5035075;28;20037;-66
2023/11/11 05:47:06;;;;;;;16.87;12.20;;;;;;;7.00;100.00;100619.88;5034280;28;20033;-66
2023/11/11 05:49:32;;;;;;;19.30;12.50;;;;;;;7.14;100.00;100630.00;5034642;28;20033;-68
2023/11/11 05:51:58;;;;;;;18.07;11.37;;;;;;;7.07;100.00;100620.13;5034350;28;20772;-66
2023/11/11 05:54:23;;;;;;;16.13;12.00;;;;;;;7.12;100.00;100633.75;5034099;28;20488;-69
2023/11/11 05:56:50;;;;;;;18.47;12.40;;;;;;;7.08;100.00;100653.56;5032943;28;20029;-64
2023/11/11 05:59:15;;;;;;;17.33;12.27;;;;;;;7.07;100.00;100646.59;5033999;28;20040;-67
2023/11/11 06:01:45;;;;;;;20.73;11.67;;;;;;;7.02;100.00;100638.25;5034080;28;20060;-67
2023/11/11 06:04:11;;;;;;;16.57;11.83;;;;;;;7.03;100.00;100643.41;5032740;28;20044;-66
2023/11/11 06:06:41;;;;;;;16.30;12.20;;;;;;;7.14;100.00;100650.34;5032671;28;20037;-67
2023/11/11 06:09:14;;;;;;;16.73;11.17;;;;;;;7.09;100.00;100645.47;5033845;28;20037;-67
2023/11/11 06:11:45;;;;;;;17.50;11.47;;;;;;;7.13;100.00;100641.56;5034006;28;20435;-67
2023/11/11 06:14:18;;;;;;;21.30;11.50;;;;;;;7.19;100.00;100649.91;5034192;28;20128;-66
2023/11/11 06:16:45;;;;;;;15.80;11.40;;;;;;;7.07;100.00;100626.25;5033823;28;20041;-66
2023/11/11 06:19:12;;;;;;;15.03;11.57;;;;;;;7.16;100.00;100640.44;5033102;28;20070;-67
2023/11/11 06:21:38;;;;;;;19.50;12.73;;;;;;;7.18;100.00;100637.66;5033216;28;20848;-67
2023/11/11 06:24:04;;;;;;;18.10;12.27;;;;;;;6.86;100.00;100601.78;5033343;28;20073;-65
2023/11/11 06:26:30;;;;;;;15.30;12.00;;;;;;;7.12;100.00;100654.94;5034433;28;20045;-67
2023/11/11 06:28:57;;;;;;;17.80;12.60;;;;;;;7.09;100.00;100661.38;5033860;28;20429;-67
2023/11/11 06:31:24;;;;;;;16.43;12.33;;;;;;;7.00;100.00;100634.91;5033867;28;20033;-65
2023/11/11 06:33:50;;;;;;;15.97;12.77;;;;;;;7.10;100.00;100657.75;5033616;28;20037;-66
2023/11/11 06:36:16;;;;;;;18.50;13.40;;;;;;;7.08;100.00;100646.47;5033596;28;20048;-66
2023/11/11 06:38:42;;;;;;;19.43;12.60;;;;;;;7.11;100.00;100646.16;5037186;28;20416;-67
2023/11/11 06:41:08;;;;;;;28.63;14.87;;;;;;;7.22;100.00;100654.91;5038289;28;20410;-67
2023/11/11 06:43:34;;;;;;;25.87;15.20;;;;;;;7.29;100.00;100661.34;5046799;28;20042;-68
2023/11/11 06:46:00;;;;;;;31.70;17.70;;;;;;;7.32;100.00;100667.19;5050082;28;20060;-66
2023/11/11 06:48:27;;;;;;;20.80;14.17;;;;;;;7.32;100.00;100663.69;5048796;28;20030;-66
2023/11/11 06:50:59;;;;;;;22.00;12.93;;;;;;;7.31;100.00;100667.31;5053867;28;20037;-66
2023/11/11 06:53:24;;;;;;;24.90;16.40;;;;;;;7.32;100.00;100669.81;5049921;28;20445;-68
2023/11/11 06:55:59;;;;;;;28.10;16.73;;;;;;;7.35;100.00;100663.41;5036006;28;20116;-67
2023/11/11 06:58:25;;;;;;;18.43;12.87;;;;;;;7.32;100.00;100651.28;5016275;28;20045;-67
2023/11/11 07:00:51;;;;;;;15.07;12.30;;;;;;;7.38;100.00;100660.47;5013068;28;20041;-67
2023/11/11 07:03:17;;;;;;;17.17;12.57;;;;;;;7.33;100.00;100654.75;5012978;28;20042;-69
2023/11/11 07:05:43;;;;;;;17.93;12.47;;;;;;;7.35;100.00;100664.25;5012950;28;20512;-68
2023/11/11 07:08:09;;;;;;;21.60;15.13;;;;;;;7.18;100.00;100643.78;5011563;28;20212;-67
2023/11/11 07:10:37;;;;;;;20.67;14.67;;;;;;;7.34;100.00;100665.22;5013573;28;20048;-68
2023/11/11 07:13:03;;;;;;;15.50;12.30;;;;;;;7.40;100.00;100685.81;5011583;28;20100;-66
2023/11/11 07:15:28;;;;;;;17.17;12.13;;;;;;;7.44;100.00;100681.06;5013087;28;20041;-68
2023/11/11 07:17:55;;;;;;;20.70;12.40;;;;;;;7.31;100.00;100675.28;5012941;28;20030;-67
2023/11/11 07:20:21;;;;;;;16.30;11.90;;;;;;;7.32;100.00;100698.13;5013534;28;20033;-66
2023/11/11 07:22:52;;;;;;;13.47;11.47;;;;;;;7.25;100.00;100702.34;5012050;28;20056;-67
2023/11/11 07:25:20;;;;;;;19.63;12.30;;;;;;;7.09;100.00;100676.44;5012902;28;20776;-67
2023/11/11 07:27:46;;;;;;;15.77;11.05;;;;;;;7.13;100.00;100683.94;5011674;28;20081;-68
2023/11/11 07:30:12;;;;;;;20.60;11.17;;;;;;;6.90;100.00;100658.75;5012374;28;20132;-69
2023/11/11 07:32:44;;;;;;;17.80;11.40;;;;;;;6.90;100.00;100666.69;5012219;28;20034;-66
2023/11/11 07:35:11;;;;;;;14.00;10.63;;;;;;;7.14;100.00;100696.19;5012265;28;20096;-66
2023/11/11 07:37:38;;;;;;;20.07;11.20;;;;;;;6.92;100.00;100679.78;5011465;28;20097;-68
2023/11/11 07:40:05;;;;;;;19.20;12.63;;;;;;;7.05;100.00;100718.25;5021976;28;20041;-67
2023/11/11 07:42:32;;;;;;;14.40;11.10;;;;;;;7.06;100.00;100709.31;5020632;28;20123;-68
2023/11/11 07:44:59;;;;;;;13.03;10.70;;;;;;;6.80;100.00;100660.56;5021261;28;20091;-66
2023/11/11 07:47:25;;;;;;;14.77;12.67;;;;;;;7.00;100.00;100699.31;5023257;28;20057;-70
2023/11/11 07:49:51;;;;;;;15.97;12.30;;;;;;;6.94;100.00;100684.00;5020519;28;20037;-66
2023/11/11 07:52:16;;;;;;;23.87;15.53;;;;;;;7.24;100.00;100717.41;5019033;28;20212;-72
2023/11/11 07:54:42;;;;;;;15.83;12.87;;;;;;;7.29;100.00;100724.91;5018623;28;20127;-65
2023/11/11 07:57:08;;;;;;;20.07;12.90;;;;;;;7.23;100.00;100701.63;5023036;28;20042;-67
2023/11/11 07:59:37;;;;;;;23.00;13.70;;;;;;;7.29;100.00;100704.56;5022065;28;20044;-67
2023/11/11 08:02:03;;;;;;;19.37;14.73;;;;;;;7.37;100.00;100722.38;5029225;28;20048;-69
2023/11/11 08:04:29;;;;;;;17.77;15.17;;;;;;;6.71;100.00;100619.91;5031863;28;20468;-70
2023/11/11 08:06:54;;;;;;;20.27;15.10;;;;;;;7.31;100.00;100701.75;5031072;28;20052;-68
2023/11/11 08:09:20;;;;;;;20.47;15.63;;;;;;;7.34;100.00;100696.19;5031808;28;20147;-76
2023/11/11 08:11:47;;;;;;;21.63;16.87;;;;;;;7.42;100.00;100702.41;5025891;28;20033;-71
2023/11/11 08:14:12;;;;;;;19.33;16.13;;;;;;;7.51;100.00;100713.97;5031826;28;20042;-72
2023/11/11 08:16:39;;;;;;;22.00;16.77;;;;;;;7.48;100.00;100714.25;5027635;28;20099;-67
2023/11/11 08:19:04;;;;;;;20.17;14.63;;;;;;;7.45;100.00;100709.25;5020929;28;20040;-65
2023/11/11 08:21:35;;;;;;;20.40;14.03;;;;;;;7.44;100.00;100702.28;5025689;28;20037;-65
2023/11/11 08:24:03;;;;;;;16.93;14.73;;;;;;;7.56;100.00;100711.75;5020269;28;20039;-67
2023/11/11 08:26:29;;;;;;;19.23;14.00;;;;;;;7.66;100.00;100712.53;5026012;28;20505;-71
2023/11/11 08:28:55;;;;;;;21.23;15.43;;;;;;;7.67;100.00;100719.50;5023106;28;20049;-69
2023/11/11 08:31:21;;;;;;;17.80;13.63;;;;;;;7.79;100.00;100730.75;5018225;28;20046;-67
2023/11/11 08:33:46;;;;;;;20.10;14.30;;;;;;;7.70;100.00;100708.59;5019173;28;20078;-66
2023/11/11 08:36:12;;;;;;;16.67;13.07;;;;;;;7.79;100.00;100706.88;5018024;28;20038;-69
2023/11/11 08:38:38;;;;;;;17.97;14.00;;;;;;;7.95;100.00;100727.50;5004199;28;20033;-67
2023/11/11 08:41:03;;;;;;;18.60;13.03;;;;;;;7.98;100.00;100728.03;5023566;28;20037;-67
2023/11/11 08:43:29;;;;;;;19.73;13.23;;;;;;;7.89;100.00;100706.88;5017885;28;20041;-67
2023/11/11 08:45:55;;;;;;;19.50;12.77;;;;;;;7.86;100.00;100717.78;5030936;28;20033;-68
2023/11/11 08:48:22;;;;;;;21.47;11.80;;;;;;;7.57;100.00;100675.47;5026631;28;20045;-69
2023/11/11 08:50:48;;;;;;;20.13;12.67;;;;;;;7.75;100.00;100716.94;5030609;28;20042;-67
2023/11/11 08:53:14;;;;;;;17.33;11.97;;;;;;;7.90;100.00;100729.75;5023583;28;20064;-65
2023/11/11 08:55:39;;;;;;;19.13;13.23;;;;;;;7.94;100.00;100733.78;5012174;28;20080;-67
2023/11/11 08:58:05;;;;;;;14.93;11.47;;;;;;;7.88;100.00;100729.06;5011335;28;20524;-66
2023/11/11 09:00:33;;;;;;;16.80;11.00;;;;;;;7.99;100.00;100745.59;5011571;28;20045;-65
2023/11/11 09:03:04;;;;;;;16.38;10.88;;;;;;;8.02;100.00;100744.47;5011883;28;20041;-67
2023/11/11 09:05:30;;;;;;;19.70;12.70;;;;;;;8.01;100.00;100726.91;5015337;28;20135;-65
2023/11/11 09:07:56;;;;;;;17.13;10.37;;;;;;;8.04;100.00;100742.50;5015636;28;20037;-67
2023/11/11 09:10:22;;;;;;;16.00;10.53;;;;;;;8.01;100.00;100738.34;5015209;28;20419;-68
2023/11/11 09:12:48;;;;;;;23.23;15.33;;;;;;;8.00;100.00;100735.84;5014379;28;20038;-68
2023/11/11 09:15:16;;;;;;;14.13;10.77;;;;;;;7.91;100.00;100736.72;5013639;28;20034;-67
2023/11/11 09:17:43;;;;;;;15.35;10.77;;;;;;;7.88;100.00;100744.97;5014789;28;20099;-68
2023/11/11 09:20:10;;;;;;;14.30;11.43;;;;;;;7.74;100.00;100720.59;5013277;28;20517;-66
2023/11/11 09:22:40;;;;;;;21.37;12.00;;;;;;;7.80;100.00;100728.94;5013713;28;20412;-67
2023/11/11 09:25:06;;;;;;;18.10;12.43;;;;;;;8.00;100.00;100741.97;5014432;28;20053;-68
2023/11/11 09:27:33;;;;;;;19.93;11.87;;;;;;;8.11;100.00;100738.31;5013117;28;20052;-69
2023/11/11 09:29:58;;;;;;;15.37;11.13;;;;;;;8.09;100.00;100713.72;5014649;28;20034;-68
2023/11/11 09:32:24;;;;;;;19.10;11.37;;;;;;;8.11;100.00;100711.78;5014477;28;20401;-68
2023/11/11 09:34:50;;;;;;;17.17;12.53;;;;;;;8.13;100.00;100725.75;5014292;28;20092;-67
2023/11/11 09:37:17;;;;;;;15.93;12.03;;;;;;;7.96;100.00;100716.72;5014463;28;20458;-68
2023/11/11 09:39:43;;;;;;;18.83;11.93;;;;;;;8.07;100.00;100742.22;5014079;28;20034;-68
2023/11/11 09:42:08;;;;;;;21.00;11.77;;;;;;;8.02;100.00;100728.56;5014298;28;20492;-68
2023/11/11 09:44:34;;;;;;;17.83;11.80;;;;;;;7.84;100.00;100701.16;5013069;28;20125;-68
2023/11/11 09:47:02;;;;;;;17.77;12.43;;;;;;;7.97;100.00;100712.25;5015082;28;20401;-69
2023/11/11 09:49:30;;;;;;;22.10;13.37;;;;;;;8.10;100.00;100734.00;5014711;28;20042;-69
2023/11/11 09:51:57;;;;;;;21.27;13.52;;;;;;;8.05;100.00;100736.22;5013128;28;20128;-69
2023/11/11 09:54:24;;;;;;;16.73;12.07;;;;;;;7.84;100.00;100693.22;5013848;28;20520;-69
2023/11/11 09:56:52;;;;;;;14.97;12.53;;;;;;;8.07;100.00;100736.91;5014043;28;20124;-67
2023/11/11 09:59:19;;;;;;;17.23;12.02;;;;;;;8.02;100.00;100728.56;5014244;28;20037;-68
2023/11/11 10:01:45;;;;;;;18.07;13.37;;;;;;;8.05;100.00;100733.56;5013841;28;20195;-69
2023/11/11 10:04:11;;;;;;;18.80;13.70;;;;;;;7.80;100.00;100692.66;5014182;28;20037;-67
2023/11/11 10:06:37;;;;;;;17.00;12.90;;;;;;;8.00;100.00;100728.72;5013849;28;20037;-67
2023/11/11 10:09:04;;;;;;;17.33;11.80;;;;;;;7.88;100.00;100721.94;5014164;28;20451;-70
2023/11/11 10:11:31;;;;;;;18.77;12.10;;;;;;;7.80;100.00;100723.63;5015044;28;20053;-68
2023/11/11 10:13:57;;;;;;;18.97;12.00;;;;;;;7.75;100.00;100738.16;5013317;28;20516;-68
2023/11/11 10:16:25;;;;;;;22.93;13.10;;;;;;;7.80;100.00;100734.22;5014149;28;20041;-67
2023/11/11 10:18:52;;;;;;;18.02;12.65;;;;;;;7.85;100.00;100726.69;5014745;28;20046;-68
2023/11/11 10:21:22;;;;;;;20.63;12.33;;;;;;;7.84;100.00;100725.03;5013461;28;20619;-67
2023/11/11 10:23:49;;;;;;;16.77;12.27;;;;;;;7.89;100.00;100717.47;5013694;28;20041;-68
2023/11/11 10:26:20;;;;;;;20.00;12.07;;;;;;;7.65;100.00;100667.63;5013600;28;20156;-65
2023/11/11 10:28:50;;;;;;;18.77;11.93;;;;;;;7.94;100.00;100709.91;5013281;28;20452;-68
2023/11/11 10:31:18;;;;;;;20.57;11.90;;;;;;;8.05;100.00;100728.28;5013565;28;20038;-67
2023/11/11 10:33:44;;;;;;;19.75;11.10;;;;;;;8.04;100.00;100726.59;5013071;28;20038;-68
2023/11/11 10:36:10;;;;;;;18.97;11.73;;;;;;;7.98;100.00;100713.94;5012880;28;20029;-66
2023/11/11 10:38:38;;;;;;;13.70;11.00;;;;;;;8.10;100.00;100725.19;5013170;28;20034;-67
2023/11/11 10:41:03;;;;;;;18.48;12.20;;;;;;;8.04;100.00;100716.00;5013184;28;20038;-68
2023/11/11 10:43:29;;;;;;;21.77;13.27;;;;;;;8.18;100.00;100739.38;5012952;28;20044;-66
2023/11/11 10:45:55;;;;;;;22.47;12.47;;;;;;;7.49;100.00;100604.63;5013122;28;20436;-67
2023/11/11 10:48:24;;;;;;;22.40;14.13;;;;;;;8.26;100.00;100718.25;5012893;28;20072;-70
2023/11/11 10:50:52;;;;;;;;;;;;;;;8.33;100.00;100729.97;5013237;28;20397;-67
2023/11/11 10:53:18;;;;;;;;;;;;;;;8.23;100.00;100737.13;5013235;28;19918;-69
2023/11/11 10:55:52;;;;;;;19.70;13.50;;;;;;;8.07;100.00;100721.00;4995011;28;19925;-69
2023/11/11 10:58:18;;;;;;;18.43;12.03;;;;;;;7.87;100.00;100714.13;5012790;28;20073;-68
2023/11/11 11:00:48;;;;;;;17.63;13.30;;;;;;;7.77;100.00;100719.47;5012950;28;20092;-70
2023/11/11 11:03:19;;;;;;;15.97;11.43;;;;;;;7.76;100.00;100737.19;5013485;28;20037;-70
2023/11/11 11:05:49;;;;;;;18.33;12.07;;;;;;;7.72;100.00;100738.44;5012071;28;20044;-67
2023/11/11 11:08:57;;;;;;;17.77;12.33;;;;;;;7.71;100.00;100747.38;5013931;28;20433;-67